createdAt,value
2022-11-07T00:00:27.488Z,74.06
2022-11-07T00:02:54.212Z,73.69
2022-11-07T00:05:20.865Z,73.19
2022-11-07T00:07:47.369Z,73.45
2022-11-07T00:10:13.947Z,73.40
2022-11-07T00:12:40.459Z,73.27
2022-11-07T00:15:07.443Z,74.31
2022-11-07T00:17:34.033Z,74.05
2022-11-07T00:20:00.602Z,74.16
2022-11-07T00:22:27.113Z,74.58
2022-11-07T00:24:53.698Z,74.03
2022-11-07T00:27:20.366Z,74.49
2022-11-07T00:29:46.883Z,74.20
2022-11-07T00:32:13.472Z,73.84
2022-11-07T00:34:40.007Z,74.07
2022-11-07T00:37:07.009Z,73.63
2022-11-07T00:39:33.500Z,74.55
2022-11-07T00:42:00.037Z,73.00
2022-11-07T00:44:26.551Z,73.55
2022-11-07T00:46:53.095Z,73.20
2022-11-07T00:49:19.874Z,72.29
2022-11-07T00:51:46.417Z,72.03
2022-11-07T00:54:12.979Z,71.85
2022-11-07T00:56:39.550Z,72.54
2022-11-07T00:59:06.229Z,73.34
2022-11-07T01:01:34.306Z,73.85
2022-11-07T01:04:20.457Z,74.36
2022-11-07T01:06:47.305Z,74.40
2022-11-07T01:09:17.103Z,74.68
2022-11-07T01:11:44.417Z,75.22
2022-11-07T01:14:13.126Z,74.64
2022-11-07T01:16:40.051Z,74.44
2022-11-07T01:19:08.157Z,75.03
2022-11-07T01:21:36.746Z,74.46
2022-11-07T01:24:03.642Z,75.07
2022-11-07T01:26:30.237Z,74.43
2022-11-07T01:28:57.198Z,74.49
2022-11-07T01:31:23.815Z,74.53
2022-11-07T01:33:50.401Z,74.89
2022-11-07T01:36:18.027Z,75.20
2022-11-07T01:38:48.686Z,75.18
2022-11-07T01:41:22.873Z,75.61
2022-11-07T01:43:54.227Z,75.14
2022-11-07T01:46:23.040Z,75.40
2022-11-07T01:49:16.885Z,74.75
2022-11-07T01:51:47.679Z,75.06
2022-11-07T01:54:17.142Z,75.24
2022-11-07T01:56:45.100Z,74.64
2022-11-07T01:59:15.443Z,74.70
2022-11-07T02:01:42.944Z,74.45
2022-11-07T02:04:11.339Z,74.73
2022-11-07T02:07:02.091Z,74.71
2022-11-07T02:09:29.265Z,74.87
2022-11-07T02:12:00.922Z,74.73
2022-11-07T02:14:29.202Z,74.78
2022-11-07T02:16:55.994Z,75.89
2022-11-07T02:19:44.506Z,75.63
2022-11-07T02:22:36.686Z,76.05
2022-11-07T02:25:08.399Z,76.68
2022-11-07T02:27:36.998Z,77.05
2022-11-07T02:30:13.371Z,77.29
2022-11-07T02:32:39.918Z,77.57
2022-11-07T02:35:29.203Z,78.08
2022-11-07T02:37:56.097Z,78.01
2022-11-07T02:40:23.493Z,78.35
2022-11-07T02:42:50.190Z,77.71
2022-11-07T02:45:21.611Z,78.16
2022-11-07T02:47:48.157Z,78.09
2022-11-07T02:50:16.244Z,77.51
2022-11-07T02:52:43.333Z,77.56
2022-11-07T02:55:11.248Z,78.00
2022-11-07T02:57:37.826Z,78.03
2022-11-07T03:00:06.411Z,77.81
2022-11-07T03:02:33.158Z,77.78
2022-11-07T03:04:59.784Z,77.99
2022-11-07T03:07:26.688Z,77.69
2022-11-07T03:09:53.241Z,77.74
2022-11-07T03:12:19.734Z,77.65
2022-11-07T03:14:46.298Z,77.53
2022-11-07T03:17:12.935Z,77.30
2022-11-07T03:19:39.624Z,76.97
2022-11-07T03:22:06.154Z,77.65
2022-11-07T03:24:32.679Z,77.24
2022-11-07T03:26:59.419Z,77.05
2022-11-07T03:29:25.933Z,76.85
2022-11-07T03:31:52.573Z,76.57
2022-11-07T03:34:19.106Z,76.51
2022-11-07T03:36:45.659Z,76.38
2022-11-07T03:39:12.161Z,76.63
2022-11-07T03:41:38.657Z,76.52
2022-11-07T03:44:05.386Z,76.47
2022-11-07T03:46:32.005Z,76.54
2022-11-07T03:48:58.582Z,76.34
2022-11-07T03:51:25.235Z,75.84
2022-11-07T03:53:51.942Z,75.43
2022-11-07T03:56:18.485Z,75.67
2022-11-07T03:58:45.015Z,75.76
2022-11-07T04:01:13.384Z,75.97
2022-11-07T04:03:40.108Z,76.01
2022-11-07T04:06:06.913Z,75.89
2022-11-07T04:08:33.828Z,75.97
2022-11-07T04:11:00.365Z,76.31
2022-11-07T04:13:45.574Z,76.21
2022-11-07T04:16:31.353Z,76.13
2022-11-07T04:18:58.866Z,75.69
2022-11-07T04:21:25.363Z,76.21
2022-11-07T04:23:51.981Z,77.23
2022-11-07T04:26:36.723Z,77.36
2022-11-07T04:29:03.302Z,77.44
2022-11-07T04:31:30.057Z,77.38
2022-11-07T04:33:56.659Z,78.20
2022-11-07T04:36:23.188Z,78.26
2022-11-07T04:38:49.744Z,78.49
2022-11-07T04:41:21.927Z,78.67
2022-11-07T04:43:49.042Z,78.31
2022-11-07T04:46:16.412Z,78.79
2022-11-07T04:48:44.139Z,78.88
2022-11-07T04:51:16.561Z,79.31
2022-11-07T04:53:43.169Z,79.68
2022-11-07T04:56:09.904Z,79.26
2022-11-07T04:58:36.486Z,79.68
2022-11-07T05:01:03.182Z,79.99
2022-11-07T05:03:29.984Z,80.61
2022-11-07T05:05:56.651Z,79.56
2022-11-07T05:08:23.239Z,79.59
2022-11-07T05:10:49.790Z,79.84
2022-11-07T05:13:16.798Z,80.24
2022-11-07T05:15:43.657Z,80.03
2022-11-07T05:18:11.274Z,80.51
2022-11-07T05:20:39.141Z,79.95
2022-11-07T05:23:12.683Z,80.41
2022-11-07T05:25:44.418Z,80.83
2022-11-07T05:28:12.872Z,80.93
2022-11-07T05:30:41.726Z,81.19
2022-11-07T05:33:09.510Z,81.59
2022-11-07T05:35:36.143Z,81.84
2022-11-07T05:38:03.203Z,81.22
2022-11-07T05:40:29.895Z,81.63
2022-11-07T05:43:00.837Z,81.74
2022-11-07T05:45:29.464Z,81.83
2022-11-07T05:48:05.753Z,81.54
2022-11-07T05:50:32.388Z,81.21
2022-11-07T05:52:59.113Z,81.95
2022-11-07T05:55:26.218Z,81.59
2022-11-07T05:57:52.823Z,82.37
2022-11-07T06:00:20.249Z,82.51
2022-11-07T06:02:55.099Z,82.33
2022-11-07T06:05:24.288Z,82.84
2022-11-07T06:07:51.045Z,82.72
2022-11-07T06:10:17.665Z,82.42
2022-11-07T06:12:44.279Z,82.87
2022-11-07T06:15:11.597Z,83.31
2022-11-07T06:17:38.721Z,83.23
2022-11-07T06:20:05.904Z,83.99
2022-11-07T06:22:32.490Z,83.72
2022-11-07T06:24:59.086Z,84.15
2022-11-07T06:27:25.598Z,84.43
2022-11-07T06:29:52.301Z,85.31
2022-11-07T06:32:18.871Z,85.20
2022-11-07T06:34:45.403Z,85.20
2022-11-07T06:37:11.931Z,85.17
2022-11-07T06:39:38.618Z,84.37
2022-11-07T06:42:05.202Z,85.08
2022-11-07T06:44:31.789Z,84.41
2022-11-07T06:46:58.379Z,84.67
2022-11-07T06:49:24.886Z,84.17
2022-11-07T06:51:51.403Z,84.72
2022-11-07T06:54:18.081Z,84.62
2022-11-07T06:56:44.632Z,84.43
2022-11-07T06:59:11.254Z,84.65
2022-11-07T07:01:38.086Z,83.96
2022-11-07T07:04:05.489Z,84.17
2022-11-07T07:06:32.071Z,83.97
2022-11-07T07:08:58.588Z,84.11
2022-11-07T07:11:25.089Z,83.81
2022-11-07T07:13:51.637Z,84.18
2022-11-07T07:16:18.133Z,83.60
2022-11-07T07:18:44.650Z,82.18
2022-11-07T07:21:13.327Z,81.37
2022-11-07T07:23:40.609Z,80.59
2022-11-07T07:26:12.090Z,80.54
2022-11-07T07:28:38.884Z,79.99
2022-11-07T07:31:20.560Z,80.01
2022-11-07T07:33:47.720Z,79.95
2022-11-07T07:36:20.228Z,79.97
2022-11-07T07:38:47.674Z,80.48
2022-11-07T07:41:14.228Z,81.16
2022-11-07T07:43:40.801Z,81.17
2022-11-07T07:46:09.151Z,82.04
2022-11-07T07:48:35.682Z,81.93
2022-11-07T07:51:02.313Z,82.45
2022-11-07T07:53:28.960Z,83.26
2022-11-07T07:55:59.820Z,83.07
2022-11-07T07:58:27.318Z,83.25
2022-11-07T08:00:57.898Z,83.99
2022-11-07T08:03:29.298Z,83.10
2022-11-07T08:06:02.720Z,83.49
2022-11-07T08:08:32.636Z,83.59
2022-11-07T08:11:06.268Z,83.69
2022-11-07T08:13:32.950Z,83.16
2022-11-07T08:16:02.821Z,83.36
2022-11-07T08:18:29.609Z,83.30
2022-11-07T08:20:56.965Z,84.26
2022-11-07T08:23:24.451Z,83.24
2022-11-07T08:25:52.063Z,83.54
2022-11-07T08:28:20.356Z,82.98
2022-11-07T08:31:01.291Z,82.82
2022-11-07T08:33:28.235Z,82.62
2022-11-07T08:36:00.538Z,81.26
2022-11-07T08:38:28.855Z,78.90
2022-11-07T08:40:56.084Z,78.67
2022-11-07T08:43:22.606Z,75.58
2022-11-07T08:45:49.912Z,75.52
2022-11-07T08:48:17.470Z,75.45
2022-11-07T08:50:44.685Z,75.24
2022-11-07T08:53:12.020Z,74.56
2022-11-07T08:55:38.612Z,74.15
2022-11-07T08:58:06.983Z,74.30
2022-11-07T09:00:34.903Z,73.65
2022-11-07T09:05:49.715Z,72.73
2022-11-07T09:08:16.201Z,72.80
2022-11-07T09:10:42.783Z,72.25
2022-11-07T09:13:09.335Z,71.00
2022-11-07T09:15:35.834Z,70.87
2022-11-07T09:18:06.647Z,70.83
2022-11-07T09:20:34.260Z,69.84
2022-11-07T09:23:00.825Z,69.05
2022-11-07T09:25:27.569Z,68.80
2022-11-07T09:27:54.482Z,68.48
2022-11-07T09:30:22.422Z,68.16
2022-11-07T09:32:48.981Z,68.65
2022-11-07T09:35:15.535Z,68.31
2022-11-07T09:37:42.801Z,68.60
2022-11-07T09:40:32.399Z,68.04
2022-11-07T09:43:41.409Z,68.99
2022-11-07T09:46:29.629Z,69.89
2022-11-07T09:49:02.754Z,69.51
2022-11-07T09:51:39.594Z,70.04
2022-11-07T09:54:11.470Z,69.98
2022-11-07T09:56:42.123Z,70.22
2022-11-07T09:59:19.515Z,70.11
2022-11-07T10:01:46.154Z,69.69
2022-11-07T10:04:24.900Z,69.01
2022-11-07T10:07:07.438Z,68.18
2022-11-07T10:09:47.983Z,67.18
2022-11-07T10:12:32.529Z,65.42
2022-11-07T10:15:27.793Z,64.43
2022-11-07T10:17:59.482Z,62.24
2022-11-07T10:20:39.851Z,62.93
2022-11-07T10:23:19.126Z,62.53
2022-11-07T10:26:08.599Z,60.08
2022-11-07T10:29:00.152Z,62.52
2022-11-07T10:31:42.949Z,61.45
2022-11-07T10:34:17.144Z,61.74
2022-11-07T10:36:43.736Z,61.52
2022-11-07T10:39:18.680Z,61.67
2022-11-07T10:42:08.201Z,61.45
2022-11-07T10:44:35.296Z,61.04
2022-11-07T10:47:05.737Z,60.64
2022-11-07T10:49:33.055Z,60.29
2022-11-07T10:52:17.324Z,59.59
2022-11-07T10:54:45.044Z,59.88
2022-11-07T10:57:23.343Z,59.80
2022-11-07T10:59:52.815Z,59.76
2022-11-07T11:02:21.692Z,59.58
2022-11-07T11:04:57.183Z,59.80
2022-11-07T11:07:42.039Z,59.15
2022-11-07T11:10:38.825Z,58.12
2022-11-07T11:13:06.787Z,58.71
2022-11-07T11:15:43.825Z,55.62
2022-11-07T11:18:17.012Z,58.54
2022-11-07T11:21:13.961Z,58.30
2022-11-07T11:23:44.071Z,57.99
2022-11-07T11:26:16.507Z,58.37
2022-11-07T11:28:46.561Z,58.11
2022-11-07T11:31:26.512Z,57.38
2022-11-07T11:34:10.089Z,57.91
2022-11-07T11:36:44.810Z,57.62
2022-11-07T11:39:32.192Z,57.57
2022-11-07T11:42:00.305Z,57.77
2022-11-07T11:44:38.009Z,57.56
2022-11-07T11:47:16.201Z,57.41
2022-11-07T11:49:52.231Z,56.94
2022-11-07T11:52:25.928Z,56.26
2022-11-07T11:54:55.294Z,56.83
2022-11-07T11:57:35.168Z,57.58
2022-11-07T12:00:05.062Z,57.09
2022-11-07T12:03:06.962Z,55.75
2022-11-07T12:06:13.026Z,54.75
2022-11-07T12:09:13.969Z,55.71
2022-11-07T12:12:23.568Z,56.45
2022-11-07T12:15:00.342Z,56.74
2022-11-07T12:17:55.754Z,54.98
2022-11-07T12:20:25.055Z,56.94
2022-11-07T12:23:07.430Z,57.05
2022-11-07T12:26:01.602Z,56.03
2022-11-07T12:28:42.775Z,57.73
2022-11-07T12:31:22.233Z,57.57
2022-11-07T12:34:19.524Z,55.59
2022-11-07T12:37:17.964Z,56.71
2022-11-07T12:39:57.284Z,56.44
2022-11-07T12:42:40.420Z,56.55
2022-11-07T12:45:37.792Z,56.73
2022-11-07T12:48:24.988Z,56.73
2022-11-07T12:51:16.590Z,57.83
2022-11-07T12:53:57.542Z,58.90
2022-11-07T12:56:34.982Z,59.56
2022-11-07T12:59:06.924Z,59.24
2022-11-07T13:02:10.575Z,58.43
2022-11-07T13:04:50.473Z,57.89
2022-11-07T13:07:34.987Z,58.99
2022-11-07T13:10:17.600Z,58.46
2022-11-07T13:13:02.970Z,58.56
2022-11-07T13:15:47.527Z,58.60
2022-11-07T13:18:26.533Z,58.57
2022-11-07T13:21:04.519Z,58.67
2022-11-07T13:23:32.143Z,58.89
2022-11-07T13:26:20.361Z,59.64
2022-11-07T13:29:00.182Z,59.27
2022-11-07T13:31:34.060Z,59.33
2022-11-07T13:34:29.989Z,59.20
2022-11-07T13:37:03.251Z,59.89
2022-11-07T13:39:30.290Z,59.97
2022-11-07T13:41:58.397Z,59.87
2022-11-07T13:44:37.478Z,59.84
2022-11-07T13:47:12.121Z,60.35
2022-11-07T13:49:44.883Z,60.44
2022-11-07T13:52:32.344Z,60.60
2022-11-07T13:55:30.398Z,60.59
2022-11-07T13:58:09.021Z,61.05
2022-11-07T14:00:37.535Z,61.39
2022-11-07T14:03:04.512Z,61.73
2022-11-07T14:05:37.164Z,61.94
2022-11-07T14:08:16.612Z,61.63
2022-11-07T14:10:48.527Z,61.83
2022-11-07T14:13:25.856Z,62.02
2022-11-07T14:15:59.152Z,62.17
2022-11-07T14:18:29.840Z,62.04
2022-11-07T14:20:58.424Z,62.55
2022-11-07T14:23:28.401Z,62.42
2022-11-07T14:25:57.739Z,62.53
2022-11-07T14:28:25.012Z,62.95
2022-11-07T14:30:52.949Z,63.04
2022-11-07T14:33:22.127Z,63.17
2022-11-07T14:35:51.197Z,63.40
2022-11-07T14:38:27.201Z,63.84
2022-11-07T14:41:00.688Z,63.28
2022-11-07T14:43:28.407Z,63.21
2022-11-07T14:46:13.603Z,63.85
2022-11-07T14:48:42.491Z,64.74
2022-11-07T14:51:13.323Z,64.42
2022-11-07T14:53:48.883Z,64.19
2022-11-07T14:56:19.833Z,64.74
2022-11-07T14:58:47.246Z,65.42
2022-11-07T15:01:23.146Z,64.77
2022-11-07T15:03:52.782Z,65.51
2022-11-07T15:06:33.334Z,65.51
2022-11-07T15:09:06.081Z,65.21
2022-11-07T15:11:39.154Z,66.13
2022-11-07T15:14:25.943Z,66.03
2022-11-07T15:16:54.141Z,65.92
2022-11-07T15:19:23.695Z,66.41
2022-11-07T15:22:01.013Z,67.26
2022-11-07T15:24:47.131Z,67.01
2022-11-07T15:27:13.579Z,66.12
2022-11-07T15:29:49.903Z,66.73
2022-11-07T15:32:19.702Z,67.74
2022-11-07T15:37:36.517Z,67.34
2022-11-07T15:40:15.143Z,67.80
2022-11-07T15:42:41.652Z,67.26
2022-11-07T15:45:08.466Z,67.50
2022-11-07T15:47:35.117Z,67.25
2022-11-07T15:50:01.878Z,67.49
2022-11-07T15:52:28.399Z,67.99
2022-11-07T15:54:54.909Z,67.84
2022-11-07T15:57:21.396Z,68.50
2022-11-07T15:59:47.967Z,68.17
2022-11-07T16:02:17.008Z,67.38
2022-11-07T16:04:43.905Z,68.46
2022-11-07T16:07:17.750Z,68.30
2022-11-07T16:09:45.874Z,68.96
2022-11-07T16:12:13.389Z,68.90
2022-11-07T16:14:44.630Z,69.52
2022-11-07T16:17:18.836Z,69.56
2022-11-07T16:19:46.369Z,69.72
2022-11-07T16:22:14.766Z,69.26
2022-11-07T16:24:41.411Z,69.74
2022-11-07T16:27:08.002Z,69.11
2022-11-07T16:29:34.506Z,69.16
2022-11-07T16:32:01.391Z,68.41
2022-11-07T16:34:27.871Z,68.12
2022-11-07T16:36:54.520Z,68.05
2022-11-07T16:39:22.995Z,68.71
2022-11-07T16:41:50.441Z,70.20
2022-11-07T16:44:20.477Z,70.06
2022-11-07T16:46:51.273Z,71.55
2022-11-07T16:49:35.953Z,71.83
2022-11-07T16:52:03.437Z,71.25
2022-11-07T16:54:29.923Z,71.72
2022-11-07T16:56:57.254Z,71.66
2022-11-07T16:59:24.525Z,71.06
2022-11-07T17:01:51.894Z,70.98
2022-11-07T17:04:18.471Z,71.92
2022-11-07T17:06:47.646Z,72.45
2022-11-07T17:09:16.793Z,72.18
2022-11-07T17:11:44.534Z,72.53
2022-11-07T17:14:11.118Z,72.51
2022-11-07T17:16:37.882Z,72.91
2022-11-07T17:19:05.825Z,72.81
2022-11-07T17:21:36.250Z,72.01
2022-11-07T17:24:04.054Z,72.45
2022-11-07T17:26:35.147Z,71.91
2022-11-07T17:29:04.697Z,71.62
2022-11-07T17:31:31.195Z,71.75
2022-11-07T17:33:57.759Z,72.03
2022-11-07T17:36:36.295Z,72.21
2022-11-07T17:39:11.353Z,71.71
2022-11-07T17:41:39.725Z,71.92
2022-11-07T17:44:06.664Z,72.09
2022-11-07T17:46:34.929Z,72.56
2022-11-07T17:49:04.398Z,72.13
2022-11-07T17:51:31.033Z,72.46
2022-11-07T17:53:58.299Z,72.16
2022-11-07T17:56:27.532Z,72.93
2022-11-07T17:59:03.185Z,74.03
2022-11-07T18:01:35.049Z,73.40
2022-11-07T18:04:02.479Z,74.15
2022-11-07T18:06:29.508Z,74.78
2022-11-07T18:08:58.236Z,74.49
2022-11-07T18:11:28.161Z,74.38
2022-11-07T18:13:56.876Z,74.08
2022-11-07T18:16:28.838Z,74.46
2022-11-07T18:18:57.317Z,74.16
2022-11-07T18:21:24.412Z,73.92
2022-11-07T18:23:51.177Z,75.09
2022-11-07T18:26:33.397Z,76.03
2022-11-07T18:29:06.309Z,76.74
2022-11-07T18:31:33.651Z,76.28
2022-11-07T18:34:02.072Z,75.95
2022-11-07T18:36:30.768Z,76.64
2022-11-07T18:39:19.171Z,77.76
2022-11-07T18:41:45.971Z,77.19
2022-11-07T18:44:13.146Z,76.79
2022-11-07T18:46:40.754Z,77.24
2022-11-07T18:49:07.562Z,77.30
2022-11-07T18:51:35.235Z,77.78
2022-11-07T18:54:03.735Z,77.20
2022-11-07T18:56:30.607Z,77.29
2022-11-07T18:58:57.717Z,78.40
2022-11-07T19:01:28.209Z,77.93
2022-11-07T19:03:56.697Z,78.69
2022-11-07T19:06:25.099Z,77.41
2022-11-07T19:08:51.731Z,77.77
2022-11-07T19:11:29.418Z,79.01
2022-11-07T19:13:59.991Z,78.73
2022-11-07T19:16:26.952Z,78.38
2022-11-07T19:18:53.497Z,78.67
2022-11-07T19:21:21.474Z,78.04
2022-11-07T19:23:48.842Z,79.00
2022-11-07T19:26:15.776Z,79.10
2022-11-07T19:28:42.262Z,79.31
2022-11-07T19:31:12.901Z,79.46
2022-11-07T19:33:43.664Z,80.42
2022-11-07T19:36:16.412Z,80.45
2022-11-07T19:38:44.072Z,80.05
2022-11-07T19:41:12.148Z,80.37
2022-11-07T19:43:39.190Z,80.11
2022-11-07T19:46:15.163Z,81.42
2022-11-07T19:48:42.767Z,81.88
2022-11-07T19:51:19.880Z,82.07
2022-11-07T19:53:51.258Z,81.52
2022-11-07T19:56:17.735Z,81.85
2022-11-07T19:58:44.337Z,81.50
2022-11-07T20:01:13.743Z,81.28
2022-11-07T20:03:43.973Z,81.11
2022-11-07T20:06:11.920Z,81.38
2022-11-07T20:08:39.074Z,81.27
2022-11-07T20:11:05.962Z,80.42
2022-11-07T20:13:33.149Z,80.49
2022-11-07T20:15:59.638Z,81.03
2022-11-07T20:18:26.206Z,82.34
2022-11-07T20:21:00.688Z,82.06
2022-11-07T20:23:27.328Z,82.75
2022-11-07T20:25:53.879Z,81.94
2022-11-07T20:28:20.746Z,82.41
2022-11-07T20:30:47.315Z,83.26
2022-11-07T20:33:14.092Z,83.15
2022-11-07T20:35:40.763Z,82.75
2022-11-07T20:38:07.253Z,82.66
2022-11-07T20:40:33.928Z,82.95
2022-11-07T20:43:01.767Z,82.87
2022-11-07T20:45:28.412Z,83.00
2022-11-07T20:47:54.954Z,83.56
2022-11-07T20:50:21.441Z,84.14
2022-11-07T20:52:47.951Z,83.62
2022-11-07T20:55:14.450Z,83.48
2022-11-07T20:57:40.934Z,83.78
2022-11-07T21:00:08.185Z,83.48
2022-11-07T21:02:34.723Z,84.56
2022-11-07T21:05:17.975Z,84.46
2022-11-07T21:07:45.067Z,84.98
2022-11-07T21:10:11.672Z,85.93
2022-11-07T21:12:38.226Z,86.09
2022-11-07T21:15:05.295Z,85.66
2022-11-07T21:17:31.946Z,85.12
2022-11-07T21:19:58.472Z,85.54
2022-11-07T21:22:29.207Z,86.10
2022-11-07T21:24:56.416Z,85.27
2022-11-07T21:27:22.912Z,85.97
2022-11-07T21:29:49.474Z,85.33
2022-11-07T21:32:15.992Z,86.24
2022-11-07T21:34:42.760Z,86.23
2022-11-07T21:37:10.043Z,85.93
2022-11-07T21:39:36.524Z,86.54
2022-11-07T21:42:04.330Z,85.59
2022-11-07T21:44:30.855Z,85.30
2022-11-07T21:46:57.376Z,85.81
2022-11-07T21:49:23.917Z,85.63
2022-11-07T21:51:51.322Z,86.18
2022-11-07T21:54:17.866Z,86.87
2022-11-07T21:56:44.406Z,87.67
2022-11-07T21:59:12.047Z,87.61
2022-11-07T22:01:40.042Z,87.72
2022-11-07T22:04:10.922Z,87.59
2022-11-07T22:06:43.883Z,87.14
2022-11-07T22:09:14.368Z,86.53
2022-11-07T22:11:41.171Z,86.87
2022-11-07T22:14:08.931Z,86.46
2022-11-07T22:16:36.279Z,86.96
2022-11-07T22:19:03.840Z,86.88
2022-11-07T22:21:31.723Z,87.10
2022-11-07T22:23:58.720Z,86.67
2022-11-07T22:26:27.385Z,87.62
2022-11-07T22:28:54.685Z,87.49
2022-11-07T22:31:26.872Z,87.63
2022-11-07T22:33:54.238Z,87.72
2022-11-07T22:36:21.466Z,88.27
2022-11-07T22:38:48.019Z,87.64
2022-11-07T22:41:22.811Z,87.80
2022-11-07T22:43:50.415Z,87.36
2022-11-07T22:46:19.892Z,87.08
2022-11-07T22:48:47.576Z,87.10
2022-11-07T22:51:20.149Z,87.35
2022-11-07T22:53:47.304Z,86.63
2022-11-07T22:56:16.092Z,86.32
2022-11-07T22:58:43.441Z,86.80
2022-11-07T23:01:19.927Z,86.36
2022-11-07T23:03:47.252Z,86.14
2022-11-07T23:06:14.218Z,85.95
2022-11-07T23:08:41.035Z,86.36
2022-11-07T23:11:48.697Z,86.14
2022-11-07T23:14:19.087Z,86.02
2022-11-07T23:16:48.395Z,86.18
2022-11-07T23:19:17.335Z,85.75
2022-11-07T23:21:44.416Z,86.67
2022-11-07T23:24:11.031Z,87.14
2022-11-07T23:26:38.417Z,87.27
2022-11-07T23:29:12.530Z,87.35
2022-11-07T23:31:41.032Z,86.94
2022-11-07T23:34:08.024Z,86.43
2022-11-07T23:36:35.069Z,86.09
2022-11-07T23:39:09.773Z,86.24
2022-11-07T23:41:36.281Z,86.50
2022-11-07T23:44:03.089Z,86.55
2022-11-07T23:46:48.317Z,87.13
2022-11-07T23:49:33.490Z,87.88
2022-11-07T23:52:00.087Z,87.51
2022-11-07T23:54:44.955Z,88.18
2022-11-07T23:57:11.506Z,87.78
2022-11-07T23:59:56.514Z,87.53
